Holly Ann — WDE9094 — position and weather

sailwx.info

Track history (hours):
 
Tides and Currents Weather Stations Pressure Air Temp Water Temp Dewpoint Dewpoint Depression Visibility Wind Speed Wind Dir Waves Ship Positions

Holly Ann

Owner: Manke Tug and Barge Co., Inc., Shelton, WA. More information available from US FCC via Universal Licensing System and Coast Guard Vessel Documentation Center.

Last reported at 2015-Mar-06 10:33 UTC. Time now 2015-Mar-06 11:10 UTC.
Position N 47°52' W 122°23'.

; draft 4.5 m.

Type: Towing. MMSI: 367413350.

Date/timePositionNaut miles runAvg speedWind from/ knotsBaromVisibWave heightAir tempDewpointWater temp
2015-Mar-06 10:33N 47°52' W 122°23'3 4.2
2015-Mar-06 09:56N 47°49' W 122°24'2 4.0
2015-Mar-06 09:33N 47°48' W 122°25'0 3.8
2015-Mar-06 09:31N 47°48' W 122°25'5 4.8
2015-Mar-06 08:33N 47°43' W 122°26'0 5.6
2015-Mar-06 08:31N 47°43' W 122°26'6 6.2
2015-Mar-06 07:33N 47°37' W 122°27'0 6.5
2015-Mar-06 07:31N 47°37' W 122°27'3 6.8
2015-Mar-06 07:06N 47°34' W 122°26'4 6.9
2015-Mar-06 06:33N 47°31' W 122°29'8 7.7
2015-Mar-06 05:33N 47°23' W 122°32'9 9.1
2015-Mar-06 04:33N 47°14' W 122°34'10 6.6
2015-Mar-06 03:06N 47°10' W 122°47'4 5.9
2015-Mar-06 02:28N 47°10' W 122°52'3 0.1
2015-Mar-04 22:29N 47°10' W 122°48'8 8.1
2015-Mar-04 21:31N 47°12' W 122°37'9 9.6
2015-Mar-04 20:33N 47°21' W 122°33'1 7.8
2015-Mar-04 20:24N 47°22' W 122°32'7 8.2
2015-Mar-04 19:34N 47°29' W 122°30'3 8.3
2015-Mar-04 19:10N 47°32' W 122°29'6 9.1
2015-Mar-04 18:33N 47°36' W 122°23'1 9.0
2015-Mar-04 18:30N 47°36' W 122°23'3 3.0
2015-Mar-04 17:33N 47°33' W 122°21'0 0.0
2015-Mar-04 17:30N 47°33' W 122°21'0 0.0
2015-Mar-04 16:33N 47°33' W 122°21'0 0.0
2015-Mar-04 16:30N 47°33' W 122°21'0 0.0
2015-Mar-04 15:33N 47°33' W 122°21'0 0.0
2015-Mar-04 15:30N 47°33' W 122°21'0 0.0
2015-Mar-04 14:34N 47°33' W 122°21'0 0.0
2015-Mar-04 14:30N 47°33' W 122°21'0 0.0
2015-Mar-04 13:34N 47°33' W 122°21'0 0.0
2015-Mar-04 13:30N 47°33' W 122°21'0 0.0
2015-Mar-04 12:33N 47°33' W 122°21'0 0.0
2015-Mar-04 12:30N 47°33' W 122°21'0 0.0
2015-Mar-04 11:33N 47°33' W 122°21'0 0.0
2015-Mar-04 11:29N 47°33' W 122°21'0 0.0
2015-Mar-04 10:33N 47°33' W 122°21'0 0.0
2015-Mar-04 10:29N 47°33' W 122°21'0 0.0
2015-Mar-04 09:33N 47°33' W 122°21'0 0.0
2015-Mar-04 09:29N 47°33' W 122°21'0 0.0
2015-Mar-04 08:32N 47°33' W 122°21'0 0.0
2015-Mar-04 08:28N 47°33' W 122°21'0 0.0
2015-Mar-04 07:34N 47°33' W 122°21'0 0.0
2015-Mar-04 07:29N 47°33' W 122°21'0 0.0
2015-Mar-04 07:09N 47°33' W 122°21'0 0.1
2015-Mar-04 06:33N 47°33' W 122°21'4 3.5
2015-Mar-04 05:33N 47°35' W 122°25'1 7.3
2015-Mar-04 05:23N 47°34' W 122°26'7 8.1
2015-Mar-04 04:33N 47°28' W 122°31'8 8.5
2015-Mar-04 03:34N 47°20' W 122°33'9 8.8
2015-Mar-04 02:33N 47°12' W 122°39'7 6.7
2015-Mar-04 01:33N 47°11' W 122°48'4 0.3
2015-Mar-03 12:29N 47°10' W 122°54'1 1.1
2015-Mar-03 11:33N 47°11' W 122°53'0 0.0
2015-Mar-03 10:33N 47°11' W 122°53'0 0.0
2015-Mar-03 09:06N 47°11' W 122°53'0 0.0
2015-Mar-03 08:31N 47°11' W 122°53'0 0.0
2015-Mar-03 07:09N 47°11' W 122°53'0 0.0
2015-Mar-03 06:33N 47°11' W 122°53'12 2.4
2015-Mar-03 01:33N 47°13' W 122°36'6 6.3
2015-Mar-03 00:34N 47°19' W 122°33'8 8.3
2015-Mar-02 23:33N 47°27' W 122°31'2 8.3
2015-Mar-02 23:22N 47°29' W 122°31'7 8.9
2015-Mar-02 22:34N 47°35' W 122°25'0 7.3
2015-Mar-02 22:32N 47°35' W 122°25'3 2.9
2015-Mar-02 21:33N 47°34' W 122°21'0 0.0
2015-Mar-02 21:32N 47°34' W 122°21'0 0.0
2015-Mar-02 20:33N 47°34' W 122°21'0 0.0
2015-Mar-02 20:31N 47°34' W 122°21'1 1.2
2015-Mar-02 19:33N 47°35' W 122°21'0 0.0
2015-Mar-02 19:31N 47°35' W 122°21'0 0.0
2015-Mar-02 18:34N 47°35' W 122°21'0 0.0
2015-Mar-02 18:31N 47°35' W 122°21'1 1.2
2015-Mar-02 17:32N 47°34' W 122°21'0 0.0
2015-Mar-02 16:54N 47°34' W 122°21'0 0.0
2015-Mar-02 16:33N 47°34' W 122°21'0 0.0
2015-Mar-02 16:29N 47°34' W 122°21'0 0.0
2015-Mar-02 15:32N 47°34' W 122°21'0 0.0
2015-Mar-02 14:52N 47°34' W 122°21'0 0.0
2015-Mar-02 14:33N 47°34' W 122°21'0 0.0
2015-Mar-02 14:32N 47°34' W 122°21'0 0.0
2015-Mar-02 13:33N 47°34' W 122°21'0 0.0
2015-Mar-02 13:32N 47°34' W 122°21'0 0.0
2015-Mar-02 12:33N 47°34' W 122°21'0 0.0
2015-Mar-02 12:32N 47°34' W 122°21'0 0.0
2015-Mar-02 11:33N 47°34' W 122°21'0 0.0
2015-Mar-02 11:31N 47°34' W 122°21'0 0.0
2015-Mar-02 10:34N 47°34' W 122°21'0 0.0
2015-Mar-02 10:31N 47°34' W 122°21'0 0.0
2015-Mar-02 09:33N 47°34' W 122°21'0 1.2
2015-Mar-02 09:31N 47°34' W 122°21'0 0.3
2015-Mar-02 08:10N 47°34' W 122°21'0 0.0
2015-Mar-02 07:45N 47°34' W 122°21'0 0.0
2015-Mar-02 07:33N 47°34' W 122°21'0 0.0
2015-Mar-02 07:30N 47°34' W 122°21'0 1.0
2015-Mar-02 07:05N 47°34' W 122°21'2 4.4
2015-Mar-02 06:33N 47°36' W 122°23'6 5.8
2015-Mar-02 05:34N 47°32' W 122°29'0 4.3
2015-Mar-02 05:30N 47°32' W 122°29'4 4.7
2015-Mar-02 04:33N 47°27' W 122°31'5 5.0
2015-Mar-02 03:33N 47°22' W 122°32'3 6.8
2015-Mar-02 03:09N 47°20' W 122°33'5 7.8
2015-Mar-02 02:33N 47°15' W 122°34'6 5.9
2015-Mar-02 01:33N 47°10' W 122°38'  
2015-Feb-27 06:16N 47°09' W 122°45'5 5.9
2015-Feb-27 05:26N 47°09' W 122°38'6 7.2
2015-Feb-27 04:32N 47°15' W 122°34'8 8.0
2015-Feb-27 03:33N 47°23' W 122°32'7 6.7
2015-Feb-27 02:33N 47°29' W 122°30'838.3
2015-Feb-27 02:21N 47°36' W 122°24'0 0.3
2015-Feb-27 01:33N 47°36' W 122°24'3 4.5
2015-Feb-27 00:48N 47°33' W 122°21'0 0.0
2015-Feb-27 00:26N 47°33' W 122°21'0 0.0
2015-Feb-27 00:19N 47°33' W 122°21'0 0.0
2015-Feb-26 23:29N 47°33' W 122°21'0 0.0
2015-Feb-26 23:14N 47°33' W 122°21'0 0.0
2015-Feb-26 22:33N 47°33' W 122°21'0 0.0
2015-Feb-26 22:14N 47°33' W 122°21'0 0.0
2015-Feb-26 21:30N 47°33' W 122°21'0 0.0
2015-Feb-26 21:24N 47°33' W 122°21'0 0.0
2015-Feb-26 20:32N 47°33' W 122°21'0 0.0
2015-Feb-26 20:23N 47°33' W 122°21'0 0.0
2015-Feb-26 19:33N 47°33' W 122°21'0 0.0
2015-Feb-26 19:29N 47°33' W 122°21'0 0.0
2015-Feb-26 18:33N 47°33' W 122°21'0 0.0
2015-Feb-26 18:29N 47°33' W 122°21'0 0.0
2015-Feb-26 17:33N 47°33' W 122°21'0 0.0
2015-Feb-26 16:58N 47°33' W 122°21'0 0.0
2015-Feb-26 16:33N 47°33' W 122°21'0 0.0
2015-Feb-26 16:33N 47°33' W 122°21'0 0.0
2015-Feb-26 15:32N 47°33' W 122°21'0 0.0
2015-Feb-26 15:32N 47°33' W 122°21'1 1.4
2015-Feb-26 14:33N 47°34' W 122°21'0 0.0
2015-Feb-26 14:33N 47°34' W 122°21'4 4.5
2015-Feb-26 13:33N 47°33' W 122°28'1 7.1
2015-Feb-26 13:28N 47°32' W 122°28'7 7.7
2015-Feb-26 12:33N 47°26' W 122°32'8 7.9
2015-Feb-26 11:33N 47°18' W 122°33'8 7.8
2015-Feb-26 10:33N 47°11' W 122°39'10 7.0
2015-Feb-26 09:12N 47°10' W 122°53'  
Track history (hours):
 
Tides and Currents Weather Stations Pressure Air Temp Water Temp Dewpoint Dewpoint Depression Visibility Wind Speed Wind Dir Waves Ship Positions

Holly Ann

Owner: Manke Tug and Barge Co., Inc., Shelton, WA. More information available from US FCC via Universal Licensing System and Coast Guard Vessel Documentation Center.

Last reported at 2015-Mar-06 10:33 UTC. Time now 2015-Mar-06 11:10 UTC.
Position N 47°52' W 122°23'.

; draft 4.5 m.

Type: Towing. MMSI: 367413350.

Date/timePositionNaut miles runAvg speedWind from/ knotsBaromVisibWave heightAir tempDewpointWater temp
2015-Mar-06 10:33N 47°52' W 122°23'3 4.2
2015-Mar-06 09:56N 47°49' W 122°24'2 4.0
2015-Mar-06 09:33N 47°48' W 122°25'0 3.8
2015-Mar-06 09:31N 47°48' W 122°25'5 4.8
2015-Mar-06 08:33N 47°43' W 122°26'0 5.6
2015-Mar-06 08:31N 47°43' W 122°26'6 6.2
2015-Mar-06 07:33N 47°37' W 122°27'0 6.5
2015-Mar-06 07:31N 47°37' W 122°27'3 6.8
2015-Mar-06 07:06N 47°34' W 122°26'4 6.9
2015-Mar-06 06:33N 47°31' W 122°29'8 7.7
2015-Mar-06 05:33N 47°23' W 122°32'9 9.1
2015-Mar-06 04:33N 47°14' W 122°34'10 6.6
2015-Mar-06 03:06N 47°10' W 122°47'4 5.9
2015-Mar-06 02:28N 47°10' W 122°52'3 0.1
2015-Mar-04 22:29N 47°10' W 122°48'8 8.1
2015-Mar-04 21:31N 47°12' W 122°37'9 9.6
2015-Mar-04 20:33N 47°21' W 122°33'1 7.8
2015-Mar-04 20:24N 47°22' W 122°32'7 8.2
2015-Mar-04 19:34N 47°29' W 122°30'3 8.3
2015-Mar-04 19:10N 47°32' W 122°29'6 9.1
2015-Mar-04 18:33N 47°36' W 122°23'1 9.0
2015-Mar-04 18:30N 47°36' W 122°23'3 3.0
2015-Mar-04 17:33N 47°33' W 122°21'0 0.0
2015-Mar-04 17:30N 47°33' W 122°21'0 0.0
2015-Mar-04 16:33N 47°33' W 122°21'0 0.0
2015-Mar-04 16:30N 47°33' W 122°21'0 0.0
2015-Mar-04 15:33N 47°33' W 122°21'0 0.0
2015-Mar-04 15:30N 47°33' W 122°21'0 0.0
2015-Mar-04 14:34N 47°33' W 122°21'0 0.0
2015-Mar-04 14:30N 47°33' W 122°21'0 0.0
2015-Mar-04 13:34N 47°33' W 122°21'0 0.0
2015-Mar-04 13:30N 47°33' W 122°21'0 0.0
2015-Mar-04 12:33N 47°33' W 122°21'0 0.0
2015-Mar-04 12:30N 47°33' W 122°21'0 0.0
2015-Mar-04 11:33N 47°33' W 122°21'0 0.0
2015-Mar-04 11:29N 47°33' W 122°21'0 0.0
2015-Mar-04 10:33N 47°33' W 122°21'0 0.0
2015-Mar-04 10:29N 47°33' W 122°21'0 0.0
2015-Mar-04 09:33N 47°33' W 122°21'0 0.0
2015-Mar-04 09:29N 47°33' W 122°21'0 0.0
2015-Mar-04 08:32N 47°33' W 122°21'0 0.0
2015-Mar-04 08:28N 47°33' W 122°21'0 0.0
2015-Mar-04 07:34N 47°33' W 122°21'0 0.0
2015-Mar-04 07:29N 47°33' W 122°21'0 0.0
2015-Mar-04 07:09N 47°33' W 122°21'0 0.1
2015-Mar-04 06:33N 47°33' W 122°21'4 3.5
2015-Mar-04 05:33N 47°35' W 122°25'1 7.3
2015-Mar-04 05:23N 47°34' W 122°26'7 8.1
2015-Mar-04 04:33N 47°28' W 122°31'8 8.5
2015-Mar-04 03:34N 47°20' W 122°33'9 8.8
2015-Mar-04 02:33N 47°12' W 122°39'7 6.7
2015-Mar-04 01:33N 47°11' W 122°48'4 0.3
2015-Mar-03 12:29N 47°10' W 122°54'1 1.1
2015-Mar-03 11:33N 47°11' W 122°53'0 0.0
2015-Mar-03 10:33N 47°11' W 122°53'0 0.0
2015-Mar-03 09:06N 47°11' W 122°53'0 0.0
2015-Mar-03 08:31N 47°11' W 122°53'0 0.0
2015-Mar-03 07:09N 47°11' W 122°53'0 0.0
2015-Mar-03 06:33N 47°11' W 122°53'12 2.4
2015-Mar-03 01:33N 47°13' W 122°36'6 6.3
2015-Mar-03 00:34N 47°19' W 122°33'8 8.3
2015-Mar-02 23:33N 47°27' W 122°31'2 8.3
2015-Mar-02 23:22N 47°29' W 122°31'7 8.9
2015-Mar-02 22:34N 47°35' W 122°25'0 7.3
2015-Mar-02 22:32N 47°35' W 122°25'3 2.9
2015-Mar-02 21:33N 47°34' W 122°21'0 0.0
2015-Mar-02 21:32N 47°34' W 122°21'0 0.0
2015-Mar-02 20:33N 47°34' W 122°21'0 0.0
2015-Mar-02 20:31N 47°34' W 122°21'1 1.2
2015-Mar-02 19:33N 47°35' W 122°21'0 0.0
2015-Mar-02 19:31N 47°35' W 122°21'0 0.0
2015-Mar-02 18:34N 47°35' W 122°21'0 0.0
2015-Mar-02 18:31N 47°35' W 122°21'1 1.2
2015-Mar-02 17:32N 47°34' W 122°21'0 0.0
2015-Mar-02 16:54N 47°34' W 122°21'0 0.0
2015-Mar-02 16:33N 47°34' W 122°21'0 0.0
2015-Mar-02 16:29N 47°34' W 122°21'0 0.0
2015-Mar-02 15:32N 47°34' W 122°21'0 0.0
2015-Mar-02 14:52N 47°34' W 122°21'0 0.0
2015-Mar-02 14:33N 47°34' W 122°21'0 0.0
2015-Mar-02 14:32N 47°34' W 122°21'0 0.0
2015-Mar-02 13:33N 47°34' W 122°21'0 0.0
2015-Mar-02 13:32N 47°34' W 122°21'0 0.0
2015-Mar-02 12:33N 47°34' W 122°21'0 0.0
2015-Mar-02 12:32N 47°34' W 122°21'0 0.0
2015-Mar-02 11:33N 47°34' W 122°21'0 0.0
2015-Mar-02 11:31N 47°34' W 122°21'0 0.0
2015-Mar-02 10:34N 47°34' W 122°21'0 0.0
2015-Mar-02 10:31N 47°34' W 122°21'0 0.0
2015-Mar-02 09:33N 47°34' W 122°21'0 1.2
2015-Mar-02 09:31N 47°34' W 122°21'0 0.3
2015-Mar-02 08:10N 47°34' W 122°21'0 0.0
2015-Mar-02 07:45N 47°34' W 122°21'0 0.0
2015-Mar-02 07:33N 47°34' W 122°21'0 0.0
2015-Mar-02 07:30N 47°34' W 122°21'0 1.0
2015-Mar-02 07:05N 47°34' W 122°21'2 4.4
2015-Mar-02 06:33N 47°36' W 122°23'6 5.8
2015-Mar-02 05:34N 47°32' W 122°29'0 4.3
2015-Mar-02 05:30N 47°32' W 122°29'4 4.7
2015-Mar-02 04:33N 47°27' W 122°31'5 5.0
2015-Mar-02 03:33N 47°22' W 122°32'3 6.8
2015-Mar-02 03:09N 47°20' W 122°33'5 7.8
2015-Mar-02 02:33N 47°15' W 122°34'6 5.9
2015-Mar-02 01:33N 47°10' W 122°38'  
2015-Feb-27 06:16N 47°09' W 122°45'5 5.9
2015-Feb-27 05:26N 47°09' W 122°38'6 7.2
2015-Feb-27 04:32N 47°15' W 122°34'8 8.0
2015-Feb-27 03:33N 47°23' W 122°32'7 6.7
2015-Feb-27 02:33N 47°29' W 122°30'838.3
2015-Feb-27 02:21N 47°36' W 122°24'0 0.3
2015-Feb-27 01:33N 47°36' W 122°24'3 4.5
2015-Feb-27 00:48N 47°33' W 122°21'0 0.0
2015-Feb-27 00:26N 47°33' W 122°21'0 0.0
2015-Feb-27 00:19N 47°33' W 122°21'0 0.0
2015-Feb-26 23:29N 47°33' W 122°21'0 0.0
2015-Feb-26 23:14N 47°33' W 122°21'0 0.0
2015-Feb-26 22:33N 47°33' W 122°21'0 0.0
2015-Feb-26 22:14N 47°33' W 122°21'0 0.0
2015-Feb-26 21:30N 47°33' W 122°21'0 0.0
2015-Feb-26 21:24N 47°33' W 122°21'0 0.0
2015-Feb-26 20:32N 47°33' W 122°21'0 0.0
2015-Feb-26 20:23N 47°33' W 122°21'0 0.0
2015-Feb-26 19:33N 47°33' W 122°21'0 0.0
2015-Feb-26 19:29N 47°33' W 122°21'0 0.0
2015-Feb-26 18:33N 47°33' W 122°21'0 0.0
2015-Feb-26 18:29N 47°33' W 122°21'0 0.0
2015-Feb-26 17:33N 47°33' W 122°21'0 0.0
2015-Feb-26 16:58N 47°33' W 122°21'0 0.0
2015-Feb-26 16:33N 47°33' W 122°21'0 0.0
2015-Feb-26 16:33N 47°33' W 122°21'0 0.0
2015-Feb-26 15:32N 47°33' W 122°21'0 0.0
2015-Feb-26 15:32N 47°33' W 122°21'1 1.4
2015-Feb-26 14:33N 47°34' W 122°21'0 0.0
2015-Feb-26 14:33N 47°34' W 122°21'4 4.5
2015-Feb-26 13:33N 47°33' W 122°28'1 7.1
2015-Feb-26 13:28N 47°32' W 122°28'7 7.7
2015-Feb-26 12:33N 47°26' W 122°32'8 7.9
2015-Feb-26 11:33N 47°18' W 122°33'8 7.8
2015-Feb-26 10:33N 47°11' W 122°39'10 7.0
2015-Feb-26 09:12N 47°10' W 122°53'  

Dump ship's entire track history